Time,TemperatureF,DewpointF,PressureIn,WindDirection,WindDirectionDegrees,WindSpeedMPH,WindSpeedGustMPH,Humidity,HourlyPrecipIn,Conditions,Clouds,dailyrainin,SolarRadiationWatts/m^2,SoftwareType,DateUTC
2013-05-14 00:03:00,40.0,35.0,-100.00,ENE,64,2.0,4.0,81,0.00,,,0.00,0.000000,,2013-05-14 04:03:00,
2013-05-14 00:13:00,40.0,35.0,-100.00,ENE,64,2.0,4.0,81,0.00,,,0.00,0.000000,,2013-05-14 04:13:00,
2013-05-14 00:33:00,40.0,35.0,-100.00,SW,227,2.0,5.0,82,0.00,,,0.00,0.000000,,2013-05-14 04:33:00,
2013-05-14 00:43:00,40.0,35.0,-100.00,SW,227,2.0,5.0,82,0.00,,,0.00,0.000000,,2013-05-14 04:43:00,
2013-05-14 00:53:00,40.0,35.0,-100.00,SW,227,2.0,5.0,82,0.00,,,0.00,0.000000,,2013-05-14 04:53:00,
2013-05-14 01:02:00,40.0,35.0,-100.00,SW,227,2.0,5.0,82,0.00,,,0.00,0.000000,,2013-05-14 05:02:00,
2013-05-14 01:12:00,40.0,35.0,-100.00,SW,227,2.0,5.0,82,0.00,,,0.00,0.000000,,2013-05-14 05:12:00,
2013-05-14 01:32:00,38.0,35.0,-100.00,ENE,77,3.0,5.0,88,0.00,,,0.00,0.000000,,2013-05-14 05:32:00,
2013-05-14 01:42:00,38.0,35.0,-100.00,ENE,77,3.0,5.0,88,0.00,,,0.00,0.000000,,2013-05-14 05:42:00,
2013-05-14 01:52:00,38.0,35.0,-100.00,ENE,77,3.0,5.0,88,0.00,,,0.00,0.000000,,2013-05-14 05:52:00,
2013-05-14 02:01:00,38.0,35.0,-100.00,ENE,77,3.0,5.0,88,0.00,,,0.00,0.000000,,2013-05-14 06:01:00,
2013-05-14 02:13:00,38.0,35.0,-100.00,ENE,77,3.0,5.0,88,0.00,,,0.00,0.000000,,2013-05-14 06:13:00,
2013-05-14 02:42:00,35.0,33.0,-100.00,South,184,0.0,5.0,92,0.00,,,0.00,0.000000,,2013-05-14 06:42:00,
2013-05-14 02:52:00,35.0,33.0,-100.00,South,184,0.0,5.0,92,0.00,,,0.00,0.000000,,2013-05-14 06:52:00,
2013-05-14 03:02:00,35.0,33.0,-100.00,South,184,0.0,5.0,92,0.00,,,0.00,0.000000,,2013-05-14 07:02:00,
2013-05-14 03:11:00,35.0,33.0,-100.00,South,184,0.0,5.0,92,0.00,,,0.00,0.000000,,2013-05-14 07:11:00,
2013-05-14 03:42:00,32.0,31.0,-100.00,SSE,160,1.0,4.0,95,0.00,,,0.00,0.000000,,2013-05-14 07:42:00,
2013-05-14 03:52:00,32.0,31.0,-100.00,SSE,160,1.0,4.0,95,0.00,,,0.00,0.000000,,2013-05-14 07:52:00,
2013-05-14 04:02:00,32.0,31.0,-100.00,SSE,160,1.0,4.0,95,0.00,,,0.00,0.000000,,2013-05-14 08:02:00,
2013-05-14 04:11:00,32.0,31.0,-100.00,SSE,160,1.0,4.0,95,0.00,,,0.00,0.000000,,2013-05-14 08:11:00,
2013-05-14 04:42:00,30.0,29.0,-100.00,South,178,2.0,6.0,96,0.00,,,0.00,0.000000,,2013-05-14 08:42:00,
2013-05-14 04:52:00,30.0,29.0,-100.00,South,178,2.0,6.0,96,0.00,,,0.00,0.000000,,2013-05-14 08:52:00,
2013-05-14 05:02:00,30.0,29.0,-100.00,South,178,2.0,6.0,96,0.00,,,0.00,0.000000,,2013-05-14 09:02:00,
2013-05-14 05:11:00,30.0,29.0,-100.00,South,178,2.0,6.0,96,0.00,,,0.00,0.000000,,2013-05-14 09:11:00,
2013-05-14 05:14:00,30.0,29.0,-100.00,SSW,198,0.0,5.0,97,0.00,,,0.00,0.000000,,2013-05-14 09:14:00,
2013-05-14 05:33:00,30.0,29.0,-100.00,SSW,198,0.0,5.0,97,0.00,,,0.00,0.000000,,2013-05-14 09:33:00,
2013-05-14 05:44:00,30.0,29.0,-100.00,SSW,198,0.0,5.0,97,0.00,,,0.00,0.000000,,2013-05-14 09:44:00,
2013-05-14 05:54:00,30.0,29.0,-100.00,SSW,198,0.0,5.0,97,0.00,,,0.00,0.000000,,2013-05-14 09:54:00,
2013-05-14 06:05:00,30.0,29.0,-100.00,SSW,198,0.0,5.0,97,0.00,,,0.00,0.000000,,2013-05-14 10:05:00,
2013-05-14 06:33:00,29.0,28.0,-100.00,South,174,1.0,2.0,97,0.00,,,0.00,10.000000,,2013-05-14 10:33:00,
2013-05-14 06:42:00,29.0,28.0,-100.00,South,174,1.0,2.0,97,0.00,,,0.00,10.000000,,2013-05-14 10:42:00,
2013-05-14 06:53:00,29.0,28.0,-100.00,South,174,1.0,2.0,97,0.00,,,0.00,10.000000,,2013-05-14 10:53:00,
2013-05-14 07:03:00,29.0,28.0,-100.00,South,174,1.0,2.0,97,0.00,,,0.00,10.000000,,2013-05-14 11:03:00,
2013-05-14 07:11:00,29.0,28.0,-100.00,South,174,1.0,2.0,97,0.00,,,0.00,10.000000,,2013-05-14 11:11:00,
2013-05-14 07:32:00,36.0,35.0,-100.00,South,179,0.0,3.0,96,0.00,,,0.00,85.000000,,2013-05-14 11:32:00,
2013-05-14 07:43:00,36.0,35.0,-100.00,South,179,0.0,3.0,96,0.00,,,0.00,85.000000,,2013-05-14 11:43:00,
2013-05-14 07:53:00,36.0,35.0,-100.00,South,179,0.0,3.0,96,0.00,,,0.00,85.000000,,2013-05-14 11:53:00,
2013-05-14 08:03:00,36.0,35.0,-100.00,South,179,0.0,3.0,96,0.00,,,0.00,85.000000,,2013-05-14 12:03:00,
2013-05-14 08:12:00,36.0,35.0,-100.00,South,179,0.0,3.0,96,0.00,,,0.00,85.000000,,2013-05-14 12:12:00,
2013-05-14 08:42:00,44.0,34.0,-100.00,SSW,209,2.0,5.0,68,0.00,,,0.00,305.000000,,2013-05-14 12:42:00,
2013-05-14 08:52:00,44.0,34.0,-100.00,SSW,209,2.0,5.0,68,0.00,,,0.00,305.000000,,2013-05-14 12:52:00,
2013-05-14 09:01:00,44.0,34.0,-100.00,SSW,209,2.0,5.0,68,0.00,,,0.00,305.000000,,2013-05-14 13:01:00,
2013-05-14 09:11:00,44.0,34.0,-100.00,SSW,209,2.0,5.0,68,0.00,,,0.00,305.000000,,2013-05-14 13:11:00,
2013-05-14 09:42:00,48.0,31.0,-100.00,East,99,4.0,7.0,52,0.00,,,0.00,452.000000,,2013-05-14 13:42:00,
2013-05-14 09:52:00,48.0,31.0,-100.00,East,99,4.0,7.0,52,0.00,,,0.00,452.000000,,2013-05-14 13:52:00,
2013-05-14 10:01:00,48.0,31.0,-100.00,East,99,4.0,7.0,52,0.00,,,0.00,452.000000,,2013-05-14 14:01:00,
2013-05-14 10:11:00,48.0,31.0,-100.00,East,99,4.0,7.0,52,0.00,,,0.00,452.000000,,2013-05-14 14:11:00,
2013-05-14 10:32:00,51.0,31.0,-100.00,NE,40,7.0,11.0,47,0.00,,,-99.99,734.000000,,2013-05-14 14:32:00,
2013-05-14 10:42:00,51.0,31.0,-100.00,NE,40,7.0,11.0,47,0.00,,,-99.99,734.000000,,2013-05-14 14:42:00,
2013-05-14 10:53:00,51.0,31.0,-100.00,NE,40,7.0,11.0,47,0.00,,,-99.99,734.000000,,2013-05-14 14:53:00,
2013-05-14 11:01:00,51.0,31.0,-100.00,NE,40,7.0,11.0,47,0.00,,,-99.99,734.000000,,2013-05-14 15:01:00,
2013-05-14 11:12:00,51.0,31.0,-100.00,NE,40,7.0,11.0,47,0.00,,,-99.99,734.000000,,2013-05-14 15:12:00,
2013-05-14 11:43:00,52.0,29.0,-100.00,ENE,65,6.0,14.0,41,0.00,,,0.00,787.000000,,2013-05-14 15:43:00,
2013-05-14 11:53:00,52.0,29.0,-100.00,ENE,65,6.0,14.0,41,0.00,,,0.00,787.000000,,2013-05-14 15:53:00,
2013-05-14 12:02:00,52.0,29.0,-100.00,ENE,65,6.0,14.0,41,0.00,,,0.00,787.000000,,2013-05-14 16:02:00,
2013-05-14 12:12:00,52.0,29.0,-100.00,ENE,65,6.0,14.0,41,0.00,,,0.00,787.000000,,2013-05-14 16:12:00,
2013-05-14 12:44:00,52.0,28.0,-100.00,WNW,291,5.0,11.0,39,0.00,,,0.00,373.000000,,2013-05-14 16:44:00,
2013-05-14 12:54:00,52.0,28.0,-100.00,WNW,291,5.0,11.0,39,0.00,,,0.00,373.000000,,2013-05-14 16:54:00,
2013-05-14 13:03:00,52.0,28.0,-100.00,WNW,291,5.0,11.0,39,0.00,,,0.00,373.000000,,2013-05-14 17:03:00,
2013-05-14 13:13:00,52.0,28.0,-100.00,WNW,291,5.0,11.0,39,0.00,,,0.00,373.000000,,2013-05-14 17:13:00,
2013-05-14 13:33:00,51.0,29.0,-100.00,NNW,340,4.0,11.0,42,0.00,,,0.00,263.000000,,2013-05-14 17:33:00,
2013-05-14 13:43:00,51.0,29.0,-100.00,NNW,340,4.0,11.0,42,0.00,,,0.00,263.000000,,2013-05-14 17:43:00,
2013-05-14 13:52:00,51.0,29.0,-100.00,NNW,340,4.0,11.0,42,0.00,,,0.00,263.000000,,2013-05-14 17:52:00,
2013-05-14 14:02:00,51.0,29.0,-100.00,NNW,340,4.0,11.0,42,0.00,,,0.00,263.000000,,2013-05-14 18:02:00,
2013-05-14 14:12:00,51.0,29.0,-100.00,NNW,340,4.0,11.0,42,0.00,,,0.00,263.000000,,2013-05-14 18:12:00,
2013-05-14 14:42:00,52.0,30.0,-100.00,West,259,7.0,13.0,42,0.00,,,0.00,348.000000,,2013-05-14 18:42:00,
2013-05-14 14:52:00,52.0,30.0,-100.00,West,259,7.0,13.0,42,0.00,,,0.00,348.000000,,2013-05-14 18:52:00,
2013-05-14 15:02:00,52.0,30.0,-100.00,West,259,7.0,13.0,42,0.00,,,0.00,348.000000,,2013-05-14 19:02:00,
2013-05-14 15:12:00,52.0,30.0,-100.00,West,259,7.0,13.0,42,0.00,,,0.00,348.000000,,2013-05-14 19:12:00,
2013-05-14 15:42:00,51.0,29.0,-100.00,NW,322,4.0,10.0,42,0.00,,,0.00,342.000000,,2013-05-14 19:42:00,
2013-05-14 15:53:00,51.0,29.0,-100.00,NW,322,4.0,10.0,42,0.00,,,0.00,342.000000,,2013-05-14 19:53:00,
2013-05-14 16:02:00,51.0,29.0,-100.00,NW,322,4.0,10.0,42,0.00,,,0.00,342.000000,,2013-05-14 20:02:00,
2013-05-14 16:11:00,51.0,29.0,-100.00,NW,322,4.0,10.0,42,0.00,,,0.00,342.000000,,2013-05-14 20:11:00,
2013-05-14 16:44:00,57.0,32.0,-100.00,West,261,6.0,11.0,38,0.00,,,0.00,394.000000,,2013-05-14 20:44:00,
2013-05-14 16:52:00,57.0,32.0,-100.00,West,261,6.0,11.0,38,0.00,,,0.00,394.000000,,2013-05-14 20:52:00,
2013-05-14 17:03:00,57.0,32.0,-100.00,West,261,6.0,11.0,38,0.00,,,0.00,394.000000,,2013-05-14 21:03:00,
2013-05-14 17:12:00,57.0,32.0,-100.00,West,261,6.0,11.0,38,0.00,,,0.00,394.000000,,2013-05-14 21:12:00,
2013-05-14 17:43:00,55.0,29.0,-100.00,North,5,4.0,14.0,37,0.00,,,0.00,331.000000,,2013-05-14 21:43:00,
2013-05-14 17:53:00,55.0,29.0,-100.00,North,5,4.0,14.0,37,0.00,,,0.00,331.000000,,2013-05-14 21:53:00,
2013-05-14 18:03:00,55.0,29.0,-100.00,North,5,4.0,14.0,37,0.00,,,0.00,331.000000,,2013-05-14 22:03:00,
2013-05-14 18:13:00,55.0,29.0,-100.00,North,5,4.0,14.0,37,0.00,,,0.00,331.000000,,2013-05-14 22:13:00,
2013-05-14 18:45:00,56.0,34.0,-100.00,SSE,153,2.0,6.0,43,0.00,,,0.00,180.000000,,2013-05-14 22:45:00,
2013-05-14 18:55:00,56.0,34.0,-100.00,SSE,153,2.0,6.0,43,0.00,,,0.00,180.000000,,2013-05-14 22:55:00,
2013-05-14 19:03:00,56.0,34.0,-100.00,SSE,153,2.0,6.0,43,0.00,,,0.00,180.000000,,2013-05-14 23:03:00,
2013-05-14 19:12:00,56.0,34.0,-100.00,SSE,153,2.0,6.0,43,0.00,,,0.00,180.000000,,2013-05-14 23:12:00,
2013-05-14 19:44:00,53.0,25.0,-100.00,WNW,288,2.0,9.0,33,0.00,,,0.00,159.000000,,2013-05-14 23:44:00,
2013-05-14 19:53:00,53.0,25.0,-100.00,WNW,288,2.0,9.0,33,0.00,,,0.00,159.000000,,2013-05-14 23:53:00,
2013-05-14 20:02:00,53.0,25.0,-100.00,WNW,288,2.0,9.0,33,0.00,,,0.00,159.000000,,2013-05-15 00:02:00,
2013-05-14 20:11:00,53.0,25.0,-100.00,WNW,288,2.0,9.0,33,0.00,,,0.00,159.000000,,2013-05-15 00:11:00,
2013-05-14 20:42:00,44.0,32.0,-100.00,ESE,113,1.0,5.0,62,0.00,,,0.00,17.000000,,2013-05-15 00:42:00,
2013-05-14 20:52:00,44.0,32.0,-100.00,ESE,113,1.0,5.0,62,0.00,,,0.00,17.000000,,2013-05-15 00:52:00,
2013-05-14 21:01:00,44.0,32.0,-100.00,ESE,113,1.0,5.0,62,0.00,,,0.00,17.000000,,2013-05-15 01:01:00,
2013-05-14 21:11:00,44.0,32.0,-100.00,ESE,113,1.0,5.0,62,0.00,,,0.00,17.000000,,2013-05-15 01:11:00,
2013-05-14 21:32:00,37.0,33.0,-100.00,SSW,209,2.0,4.0,84,0.00,,,0.00,1.000000,,2013-05-15 01:32:00,
2013-05-14 22:02:00,37.0,33.0,-100.00,SSW,209,2.0,4.0,84,0.00,,,0.00,1.000000,,2013-05-15 02:02:00,
2013-05-14 22:11:00,37.0,33.0,-100.00,SSW,209,2.0,4.0,84,0.00,,,0.00,1.000000,,2013-05-15 02:11:00,
2013-05-14 22:32:00,37.0,31.0,-100.00,South,184,4.0,9.0,78,0.00,,,0.00,0.000000,,2013-05-15 02:32:00,
2013-05-14 22:42:00,37.0,31.0,-100.00,South,184,4.0,9.0,78,0.00,,,0.00,0.000000,,2013-05-15 02:42:00,
2013-05-14 22:52:00,37.0,31.0,-100.00,South,184,4.0,9.0,78,0.00,,,0.00,0.000000,,2013-05-15 02:52:00,
2013-05-14 23:01:00,37.0,31.0,-100.00,South,184,4.0,9.0,78,0.00,,,0.00,0.000000,,2013-05-15 03:01:00,
2013-05-14 23:13:00,37.0,31.0,-100.00,South,184,4.0,9.0,78,0.00,,,0.00,0.000000,,2013-05-15 03:13:00,
2013-05-14 23:44:00,36.0,32.0,-100.00,SE,136,5.0,12.0,86,0.00,,,0.00,0.000000,,2013-05-15 03:44:00,
2013-05-14 23:54:00,36.0,32.0,-100.00,SE,136,5.0,12.0,86,0.00,,,0.00,0.000000,,2013-05-15 03:54:00,